createdAt,value
2023-04-20T03:59:01.039Z,0.00
2023-04-20T04:00:00.888Z,0.00
2023-04-20T04:01:00.853Z,0.00
2023-04-20T04:02:00.904Z,0.00
2023-04-20T04:03:01.039Z,0.00
2023-04-20T04:04:01.017Z,4.00
2023-04-20T04:05:00.994Z,4.00
2023-04-20T04:06:00.815Z,4.00
2023-04-20T04:07:00.821Z,4.00
2023-04-20T04:08:00.798Z,0.00
2023-04-20T04:09:00.787Z,0.00
2023-04-20T04:10:00.877Z,4.00
2023-04-20T04:11:00.787Z,4.00
2023-04-20T04:12:00.811Z,4.00
2023-04-20T04:13:00.775Z,8.00
2023-04-20T04:14:00.817Z,4.00
2023-04-20T04:15:00.791Z,4.00
2023-04-20T04:16:00.756Z,4.00
2023-04-20T04:17:00.853Z,8.00
2023-04-20T04:18:00.804Z,4.00
2023-04-20T04:19:00.752Z,8.00
2023-04-20T04:20:00.748Z,12.00
2023-04-20T04:21:00.750Z,12.00
2023-04-20T04:22:00.743Z,12.00
2023-04-20T04:23:00.762Z,12.00
2023-04-20T04:24:00.726Z,12.00
2023-04-20T04:25:00.738Z,16.00
2023-04-20T04:26:00.725Z,12.00
2023-04-20T04:27:00.722Z,12.00
2023-04-20T04:28:00.741Z,16.00
2023-04-20T04:29:00.745Z,12.00
2023-04-20T04:30:00.732Z,12.00
2023-04-20T04:31:00.803Z,16.00
2023-04-20T04:32:00.704Z,16.00
2023-04-20T04:33:00.719Z,20.00
2023-04-20T04:34:00.723Z,16.00
2023-04-20T04:35:00.723Z,20.00
2023-04-20T04:36:00.763Z,20.00
2023-04-20T04:37:00.689Z,20.00
2023-04-20T04:38:00.715Z,24.00
2023-04-20T04:39:00.698Z,20.00
2023-04-20T04:40:00.686Z,24.00
2023-04-20T04:41:00.680Z,28.00
2023-04-20T04:42:00.940Z,28.00
2023-04-20T04:43:00.695Z,32.00
2023-04-20T04:44:00.685Z,36.00
2023-04-20T04:45:00.661Z,40.00
2023-04-20T04:46:00.676Z,48.00
2023-04-20T04:47:00.655Z,56.00
2023-04-20T04:48:00.695Z,60.00
2023-04-20T04:49:00.644Z,52.00
2023-04-20T04:50:00.654Z,56.00
2023-04-20T04:51:00.651Z,60.00
2023-04-20T04:52:00.621Z,64.00
2023-04-20T04:53:00.700Z,72.00
2023-04-20T04:54:00.634Z,68.00
2023-04-20T04:55:00.625Z,68.00
2023-04-20T04:56:00.618Z,80.00
2023-04-20T04:57:00.607Z,72.00
2023-04-20T04:58:00.637Z,76.00
2023-04-20T04:59:00.614Z,76.00
2023-04-20T05:00:00.630Z,80.00
2023-04-20T05:01:00.636Z,84.00
2023-04-20T05:02:00.640Z,88.00
2023-04-20T05:03:00.808Z,84.00
2023-04-20T05:04:00.823Z,92.00
2023-04-20T05:05:00.589Z,104.00
2023-04-20T05:06:00.597Z,108.00
2023-04-20T05:07:00.578Z,104.00
2023-04-20T05:08:00.575Z,108.00
2023-04-20T05:09:00.578Z,112.00
2023-04-20T05:10:00.574Z,124.00
2023-04-20T05:11:00.562Z,136.00
2023-04-20T05:12:00.559Z,140.00
2023-04-20T05:13:00.567Z,160.00
2023-04-20T05:14:00.578Z,156.00
2023-04-20T05:15:00.601Z,148.00
2023-04-20T05:16:00.574Z,156.00
2023-04-20T05:17:00.545Z,172.00
2023-04-20T05:18:00.597Z,172.00
2023-04-20T05:19:00.543Z,168.00
2023-04-20T05:20:00.550Z,152.00
2023-04-20T05:21:00.539Z,144.00
2023-04-20T05:22:00.521Z,140.00
2023-04-20T05:23:00.542Z,144.00
2023-04-20T05:24:00.556Z,144.00
2023-04-20T05:25:00.555Z,148.00
2023-04-20T05:26:00.653Z,152.00
2023-04-20T05:27:00.504Z,144.00
2023-04-20T05:28:00.535Z,144.00
2023-04-20T05:29:00.504Z,144.00
2023-04-20T05:30:13.181Z,152.00
2023-04-20T05:31:00.515Z,160.00
2023-04-20T05:32:00.531Z,172.00
2023-04-20T05:33:00.539Z,172.00
2023-04-20T05:34:00.491Z,180.00
2023-04-20T05:35:00.518Z,180.00
2023-04-20T05:36:00.522Z,188.00
2023-04-20T05:37:00.486Z,192.00
2023-04-20T05:38:00.461Z,196.00
2023-04-20T05:39:00.470Z,200.00
2023-04-20T05:40:00.478Z,216.00
2023-04-20T05:41:00.491Z,216.00
2023-04-20T05:42:00.503Z,220.00
2023-04-20T05:43:00.456Z,224.00
2023-04-20T05:44:00.466Z,244.00
2023-04-20T05:45:00.503Z,260.00
2023-04-20T05:46:00.550Z,268.00
2023-04-20T05:47:00.453Z,268.00
2023-04-20T05:48:00.451Z,228.00
2023-04-20T05:49:00.440Z,208.00
2023-04-20T05:50:00.545Z,232.00
2023-04-20T05:51:00.501Z,224.00
2023-04-20T05:52:00.467Z,184.00
2023-04-20T05:53:00.551Z,204.00
2023-04-20T05:54:00.792Z,220.00
2023-04-20T05:55:00.583Z,244.00
2023-04-20T05:56:01.043Z,240.00
2023-04-20T05:57:00.594Z,224.00
2023-04-20T05:58:01.045Z,212.00
2023-04-20T05:59:00.425Z,204.00
2023-04-20T06:00:00.634Z,204.00
2023-04-20T06:01:00.514Z,248.00
2023-04-20T06:02:00.483Z,284.00
2023-04-20T06:03:00.610Z,316.00
2023-04-20T06:04:00.749Z,360.00
2023-04-20T06:05:00.592Z,356.00
2023-04-20T06:06:00.427Z,340.00
2023-04-20T06:07:00.435Z,368.00
2023-04-20T06:08:00.372Z,448.00
2023-04-20T06:09:00.403Z,516.00
2023-04-20T06:10:00.370Z,556.00
2023-04-20T06:11:00.432Z,600.00
2023-04-20T06:12:00.399Z,628.00
2023-04-20T06:13:00.419Z,624.00
2023-04-20T06:14:00.411Z,508.00
2023-04-20T06:15:00.391Z,312.00
2023-04-20T06:16:00.435Z,444.00
2023-04-20T06:17:00.343Z,720.00
2023-04-20T06:18:00.397Z,640.00
2023-04-20T06:19:00.343Z,392.00
2023-04-20T06:20:00.334Z,408.00
2023-04-20T06:21:00.338Z,508.00
2023-04-20T06:22:01.213Z,448.00
2023-04-20T06:23:00.409Z,404.00
2023-04-20T06:24:00.400Z,496.00
2023-04-20T06:25:00.331Z,524.00
2023-04-20T06:26:00.353Z,416.00
2023-04-20T06:27:00.343Z,380.00
2023-04-20T06:29:32.931Z,448.00
2023-04-20T06:30:32.836Z,508.00
2023-04-20T06:31:32.886Z,448.00
2023-04-20T06:32:32.909Z,524.00
2023-04-20T06:33:32.818Z,672.00
2023-04-20T06:34:32.821Z,976.00
2023-04-20T06:35:32.839Z,1272.00
2023-04-20T06:36:32.818Z,1424.00
2023-04-20T06:37:32.810Z,1416.00
2023-04-20T06:38:32.852Z,1236.00
2023-04-20T06:39:32.928Z,1292.00
2023-04-20T06:40:32.818Z,1236.00
2023-04-20T06:41:32.803Z,1152.00
2023-04-20T06:42:32.792Z,1184.00
2023-04-20T06:43:32.804Z,1304.00
2023-04-20T06:44:32.784Z,1340.00
2023-04-20T06:45:34.143Z,1120.00
2023-04-20T06:46:32.817Z,1028.00
2023-04-20T06:47:32.918Z,1136.00
2023-04-20T06:48:33.254Z,1140.00
2023-04-20T06:49:32.780Z,1016.00
2023-04-20T06:50:32.757Z,1084.00
2023-04-20T06:51:32.807Z,1192.00
2023-04-20T06:52:32.741Z,1196.00
2023-04-20T06:53:32.766Z,1192.00
2023-04-20T06:54:32.803Z,1212.00
2023-04-20T06:55:32.756Z,1256.00
2023-04-20T06:56:35.387Z,1152.00
2023-04-20T06:57:32.744Z,1200.00
2023-04-20T06:58:32.730Z,1308.00
2023-04-20T06:59:32.775Z,1192.00
2023-04-20T07:00:32.749Z,1116.00
2023-04-20T07:01:32.864Z,1148.00
2023-04-20T07:02:32.746Z,1144.00
2023-04-20T07:04:32.781Z,1052.00
2023-04-20T07:05:32.814Z,1128.00
2023-04-20T07:06:32.705Z,948.00
2023-04-20T07:07:32.713Z,1132.00
2023-04-20T07:08:32.701Z,1468.00
2023-04-20T07:09:32.709Z,1672.00
2023-04-20T07:10:32.725Z,1480.00
2023-04-20T07:11:32.716Z,1392.00
2023-04-20T07:12:32.742Z,1284.00
2023-04-20T07:13:33.808Z,1344.00
2023-04-20T07:14:32.770Z,1372.00
2023-04-20T07:15:32.729Z,1276.00
2023-04-20T07:16:32.774Z,1344.00
2023-04-20T07:17:32.682Z,1656.00
2023-04-20T07:18:35.152Z,1336.00
2023-04-20T07:19:32.694Z,1348.00
2023-04-20T07:20:32.728Z,1220.00
2023-04-20T07:21:32.788Z,1216.00
2023-04-20T07:22:32.689Z,1324.00
2023-04-20T07:23:32.724Z,1420.00
2023-04-20T07:24:32.797Z,1436.00
2023-04-20T07:25:32.664Z,1348.00
2023-04-20T07:26:32.854Z,1464.00
2023-04-20T07:27:32.686Z,1596.00
2023-04-20T07:28:32.645Z,1528.00
2023-04-20T07:29:34.024Z,1320.00
2023-04-20T07:30:32.862Z,1124.00
2023-04-20T07:31:35.292Z,1016.00
2023-04-20T07:32:32.820Z,1092.00
2023-04-20T07:33:33.537Z,1124.00
2023-04-20T07:34:32.721Z,1336.00
2023-04-20T07:35:32.680Z,1380.00
2023-04-20T07:36:32.646Z,1484.00
2023-04-20T07:37:32.674Z,1268.00
2023-04-20T07:38:32.788Z,1052.00
2023-04-20T07:39:32.650Z,920.00
2023-04-20T07:40:32.623Z,912.00
2023-04-20T07:41:33.029Z,1172.00
2023-04-20T07:42:32.674Z,1268.00
2023-04-20T07:43:32.709Z,1164.00
2023-04-20T07:44:32.630Z,1044.00
2023-04-20T07:45:32.690Z,1136.00
2023-04-20T07:46:32.642Z,1096.00
2023-04-20T07:47:32.763Z,1012.00
2023-04-20T07:48:32.652Z,984.00
2023-04-20T07:49:32.625Z,988.00
2023-04-20T07:50:32.766Z,872.00
2023-04-20T07:51:32.590Z,780.00
2023-04-20T07:52:32.618Z,780.00
2023-04-20T07:53:32.633Z,952.00
2023-04-20T07:54:32.599Z,1176.00
2023-04-20T07:55:33.205Z,1464.00
2023-04-20T07:56:32.699Z,1564.00
2023-04-20T07:57:32.717Z,1548.00
2023-04-20T07:58:32.611Z,1496.00
2023-04-20T07:59:32.777Z,1404.00
2023-04-20T08:00:32.925Z,1352.00
2023-04-20T08:01:32.650Z,1316.00
2023-04-20T08:02:32.744Z,1300.00
2023-04-20T08:03:32.705Z,1328.00
2023-04-20T08:04:32.996Z,1452.00
2023-04-20T08:05:32.729Z,1580.00
2023-04-20T08:06:32.545Z,1600.00
2023-04-20T08:07:32.599Z,1480.00
2023-04-20T08:08:32.564Z,1620.00
2023-04-20T08:09:32.548Z,1804.00
2023-04-20T08:10:32.563Z,1660.00
2023-04-20T08:11:32.549Z,1740.00
2023-04-20T08:12:32.553Z,2012.00
2023-04-20T08:13:32.608Z,2216.00
2023-04-20T08:14:32.540Z,1844.00
2023-04-20T08:15:32.560Z,1544.00
2023-04-20T08:16:32.618Z,1576.00
2023-04-20T08:17:34.099Z,1608.00
2023-04-20T08:18:32.535Z,1980.00
2023-04-20T08:19:32.550Z,2180.00
2023-04-20T08:21:32.535Z,1580.00
2023-04-20T08:22:32.514Z,1280.00
2023-04-20T08:23:32.515Z,1112.00
2023-04-20T08:24:32.524Z,1000.00
2023-04-20T08:25:32.500Z,1032.00
2023-04-20T08:26:32.514Z,1080.00
2023-04-20T08:27:32.512Z,1388.00
2023-04-20T08:28:33.897Z,1420.00
2023-04-20T08:29:32.516Z,1484.00
2023-04-20T08:30:32.754Z,1572.00
2023-04-20T08:31:32.563Z,2144.00
2023-04-20T08:32:32.549Z,3116.00
2023-04-20T08:33:32.476Z,3580.00
2023-04-20T08:34:32.480Z,3024.00
2023-04-20T08:35:32.491Z,3020.00
2023-04-20T08:36:32.481Z,2756.00
2023-04-20T08:37:33.032Z,2572.00
2023-04-20T08:38:34.224Z,2360.00
2023-04-20T08:39:33.078Z,1928.00
2023-04-20T08:40:32.496Z,2092.00
2023-04-20T08:41:32.472Z,2144.00
2023-04-20T08:42:32.478Z,1924.00
2023-04-20T08:43:32.523Z,2012.00
2023-04-20T08:44:32.453Z,2324.00
2023-04-20T08:45:32.482Z,2524.00
2023-04-20T08:46:32.769Z,2532.00
2023-04-20T08:47:32.553Z,2336.00
2023-04-20T08:48:33.708Z,2224.00
2023-04-20T08:49:32.453Z,1968.00
2023-04-20T08:50:32.460Z,1940.00
2023-04-20T08:51:32.772Z,2432.00
2023-04-20T08:52:32.512Z,2200.00
2023-04-20T08:53:32.438Z,2156.00
2023-04-20T08:54:32.624Z,2644.00
2023-04-20T08:55:32.461Z,3104.00
2023-04-20T08:56:32.463Z,3244.00
2023-04-20T08:57:32.440Z,3084.00
2023-04-20T08:58:32.451Z,3176.00
2023-04-20T08:59:32.416Z,3212.00
2023-04-20T09:00:32.422Z,3064.00
2023-04-20T09:01:35.732Z,3704.00
2023-04-20T09:02:32.525Z,3780.00
2023-04-20T09:03:32.642Z,3864.00
2023-04-20T09:04:32.447Z,5648.00
2023-04-20T09:05:32.457Z,5536.00
2023-04-20T09:06:32.475Z,5276.00
2023-04-20T09:07:32.473Z,5168.00
2023-04-20T09:08:32.437Z,3124.00
2023-04-20T09:09:32.411Z,2784.00
2023-04-20T09:10:32.412Z,2692.00
2023-04-20T09:11:32.398Z,3352.00
2023-04-20T09:12:32.415Z,4116.00
2023-04-20T09:13:32.391Z,4192.00
2023-04-20T09:14:32.564Z,4776.00
2023-04-20T09:15:32.405Z,5136.00
2023-04-20T09:16:32.481Z,4592.00
2023-04-20T09:17:32.477Z,3976.00
2023-04-20T09:18:32.432Z,3660.00
2023-04-20T09:19:32.442Z,3524.00
2023-04-20T09:20:32.413Z,3496.00
2023-04-20T09:21:32.452Z,3504.00
2023-04-20T09:22:32.404Z,3500.00
2023-04-20T09:23:32.375Z,3560.00
2023-04-20T09:24:32.480Z,3628.00
2023-04-20T09:25:32.398Z,3052.00
2023-04-20T09:30:05.109Z,3916.00
2023-04-20T09:31:32.682Z,4164.00
2023-04-20T09:32:05.112Z,4284.00
2023-04-20T09:33:05.186Z,3756.00
2023-04-20T09:34:05.794Z,3108.00
2023-04-20T09:35:04.996Z,2980.00
2023-04-20T09:36:05.110Z,3040.00
2023-04-20T09:37:06.843Z,3392.00
2023-04-20T09:38:05.028Z,3548.00
2023-04-20T09:39:04.964Z,3564.00
2023-04-20T09:40:04.961Z,3260.00
2023-04-20T09:41:05.342Z,2676.00
2023-04-20T09:42:05.005Z,2108.00
2023-04-20T09:43:04.988Z,1824.00
2023-04-20T09:44:04.973Z,1800.00
2023-04-20T09:45:05.398Z,1688.00
2023-04-20T09:46:05.126Z,1680.00
2023-04-20T09:47:05.183Z,1828.00
2023-04-20T09:48:05.578Z,1948.00
2023-04-20T09:49:04.992Z,2176.00
2023-04-20T09:50:19.255Z,2384.00
2023-04-20T09:51:04.986Z,2464.00
2023-04-20T09:52:05.015Z,2644.00
2023-04-20T09:53:04.961Z,2792.00
2023-04-20T09:54:04.973Z,4492.00
2023-04-20T09:55:04.973Z,3504.00
2023-04-20T09:56:05.038Z,3744.00
2023-04-20T09:57:05.000Z,3316.00
2023-04-20T09:58:05.003Z,3148.00
2023-04-20T09:59:04.955Z,2896.00
2023-04-20T10:01:05.076Z,2308.00
2023-04-20T10:02:05.089Z,2260.00
2023-04-20T10:13:23.144Z,4520.00
2023-04-20T10:14:23.097Z,4456.00
2023-04-20T10:15:23.057Z,4376.00
2023-04-20T10:16:23.146Z,3924.00
2023-04-20T10:17:23.255Z,3732.00
2023-04-20T10:18:23.238Z,3692.00
2023-04-20T10:19:23.037Z,3688.00
2023-04-20T10:20:23.077Z,3728.00
2023-04-20T10:21:23.059Z,3792.00
2023-04-20T10:22:23.023Z,3852.00
2023-04-20T10:23:23.030Z,4036.00
2023-04-20T10:24:23.274Z,4084.00
2023-04-20T10:25:23.064Z,4656.00
2023-04-20T10:26:23.056Z,4240.00
2023-04-20T10:27:23.116Z,4732.00
2023-04-20T10:28:23.071Z,4604.00
2023-04-20T10:29:23.116Z,4840.00
2023-04-20T10:30:23.019Z,3760.00
2023-04-20T10:31:23.074Z,3552.00
2023-04-20T10:32:23.154Z,3600.00
2023-04-20T10:33:23.117Z,4068.00
2023-04-20T10:34:23.073Z,4060.00
2023-04-20T10:35:23.004Z,4264.00
2023-04-20T10:36:23.007Z,4044.00
2023-04-20T10:37:23.002Z,3864.00
2023-04-20T10:38:23.731Z,3788.00
2023-04-20T10:39:23.292Z,5636.00
2023-04-20T10:40:23.043Z,6220.00
2023-04-20T10:41:23.119Z,7136.00
2023-04-20T10:42:22.996Z,6748.00
2023-04-20T10:43:23.586Z,4868.00
2023-04-20T10:44:23.035Z,6336.00
2023-04-20T10:45:23.056Z,4620.00
2023-04-20T10:46:23.199Z,4512.00
2023-04-20T10:47:23.138Z,4068.00
2023-04-20T10:48:22.991Z,3804.00
2023-04-20T10:49:23.067Z,3804.00
2023-04-20T10:50:23.014Z,3444.00
2023-04-20T10:51:23.021Z,3108.00
2023-04-20T10:52:23.006Z,2596.00
2023-04-20T10:53:23.154Z,2460.00
2023-04-20T10:54:23.032Z,2544.00
2023-04-20T10:55:23.010Z,2832.00
2023-04-20T10:56:23.017Z,2804.00
2023-04-20T10:57:22.985Z,2456.00
2023-04-20T10:58:22.992Z,2168.00
2023-04-20T10:59:23.005Z,1920.00
2023-04-20T11:00:23.005Z,1692.00
2023-04-20T11:01:23.260Z,1552.00
2023-04-20T11:02:23.307Z,1408.00
2023-04-20T11:03:23.068Z,1380.00
2023-04-20T11:04:23.014Z,1544.00
2023-04-20T11:05:23.412Z,1828.00
2023-04-20T11:06:23.001Z,2028.00
2023-04-20T11:07:23.047Z,2388.00
2023-04-20T11:08:22.998Z,2696.00
2023-04-20T11:09:23.045Z,2968.00
2023-04-20T11:10:23.008Z,3136.00
2023-04-20T11:11:23.036Z,3888.00
2023-04-20T11:12:23.004Z,3380.00
2023-04-20T11:13:23.620Z,3640.00
2023-04-20T11:14:23.036Z,3888.00
2023-04-20T11:15:23.084Z,3684.00
2023-04-20T11:16:30.461Z,3776.00
2023-04-20T11:17:23.253Z,3932.00
2023-04-20T11:18:25.116Z,3640.00
2023-04-20T11:19:23.169Z,3556.00
2023-04-20T11:20:22.990Z,3712.00
2023-04-20T11:21:31.717Z,3772.00
2023-04-20T11:22:23.014Z,3572.00
2023-04-20T11:23:22.972Z,3320.00
2023-04-20T11:24:31.219Z,3312.00
2023-04-20T11:25:23.612Z,3116.00
2023-04-20T11:26:23.102Z,2908.00
2023-04-20T11:27:23.164Z,3192.00
2023-04-20T11:28:24.775Z,3848.00
2023-04-20T11:29:23.070Z,4024.00
2023-04-20T11:30:24.135Z,3872.00
2023-04-20T11:31:24.140Z,3924.00
2023-04-20T11:32:23.283Z,3788.00
2023-04-20T11:33:23.177Z,4000.00
2023-04-20T11:34:22.958Z,4392.00
2023-04-20T11:35:23.060Z,7340.00
2023-04-20T11:36:23.010Z,7988.00
2023-04-20T11:37:22.984Z,8000.00
2023-04-20T11:38:22.993Z,6332.00
2023-04-20T11:39:22.998Z,5644.00
2023-04-20T11:40:22.930Z,6756.00
2023-04-20T11:41:23.037Z,8872.00
2023-04-20T11:42:22.983Z,8256.00
2023-04-20T11:43:23.081Z,8708.00
2023-04-20T11:44:22.986Z,7344.00
2023-04-20T11:45:22.962Z,6764.00
2023-04-20T11:46:23.076Z,9236.00
2023-04-20T11:47:23.101Z,5784.00
2023-04-20T11:48:22.938Z,9124.00
2023-04-20T11:49:22.947Z,7712.00
2023-04-20T11:50:22.946Z,9932.00
2023-04-20T11:51:23.000Z,9756.00
2023-04-20T11:52:22.936Z,6104.00
2023-04-20T11:53:22.987Z,4896.00
2023-04-20T11:54:22.980Z,5308.00
2023-04-20T11:55:22.928Z,5644.00
2023-04-20T11:56:23.154Z,9616.00
2023-04-20T11:57:23.019Z,9080.00
2023-04-20T11:58:22.978Z,9460.00
2023-04-20T11:59:23.943Z,9468.00
2023-04-20T12:00:23.049Z,9200.00
2023-04-20T12:01:23.036Z,6848.00
2023-04-20T12:02:23.238Z,9596.00
2023-04-20T12:03:23.177Z,8984.00
2023-04-20T12:04:23.441Z,5156.00
2023-04-20T12:05:23.153Z,5112.00
2023-04-20T12:06:23.172Z,9512.00
2023-04-20T12:07:23.009Z,5976.00
2023-04-20T12:08:23.034Z,10092.00
2023-04-20T12:09:23.046Z,5324.00
2023-04-20T12:10:22.986Z,5736.00
2023-04-20T12:11:22.977Z,6788.00
2023-04-20T12:12:22.996Z,9008.00
2023-04-20T12:13:23.004Z,6464.00
2023-04-20T12:14:23.018Z,6148.00
2023-04-20T12:15:22.953Z,6096.00
2023-04-20T12:16:22.985Z,5288.00
2023-04-20T12:17:23.172Z,5136.00
2023-04-20T12:18:22.961Z,5748.00
2023-04-20T12:19:22.960Z,6364.00
2023-04-20T12:20:23.020Z,10548.00
2023-04-20T12:21:23.865Z,7952.00
2023-04-20T12:22:23.062Z,7536.00
2023-04-20T12:23:23.032Z,7036.00
2023-04-20T12:24:23.045Z,6112.00
2023-04-20T12:25:23.043Z,5156.00
2023-04-20T12:26:31.981Z,4364.00
2023-04-20T12:27:23.055Z,3400.00
2023-04-20T12:28:23.031Z,2652.00
2023-04-20T12:29:22.970Z,2440.00
2023-04-20T12:30:23.004Z,2700.00
2023-04-20T12:31:25.107Z,3268.00
2023-04-20T12:32:23.046Z,5428.00
2023-04-20T12:33:23.071Z,11416.00
2023-04-20T12:34:23.029Z,7648.00
2023-04-20T12:35:22.981Z,11044.00
2023-04-20T12:36:23.049Z,7140.00
2023-04-20T12:37:23.061Z,7068.00
2023-04-20T12:38:23.009Z,6756.00
2023-04-20T12:39:23.010Z,6976.00
2023-04-20T12:40:23.002Z,13092.00
2023-04-20T12:41:23.050Z,7992.00
2023-04-20T12:42:23.033Z,8548.00
2023-04-20T12:43:23.081Z,9016.00
2023-04-20T12:44:23.002Z,8892.00
2023-04-20T12:45:23.045Z,9688.00
2023-04-20T12:46:23.257Z,7584.00
2023-04-20T12:47:23.242Z,6816.00
2023-04-20T12:48:23.195Z,8040.00
2023-04-20T12:49:23.099Z,7344.00
2023-04-20T12:50:23.073Z,7604.00
2023-04-20T12:51:23.052Z,8608.00
2023-04-20T12:52:23.051Z,9952.00
2023-04-20T12:53:23.130Z,9148.00
2023-04-20T12:54:23.036Z,8284.00
2023-04-20T12:55:23.018Z,9220.00
2023-04-20T12:56:23.004Z,8500.00
2023-04-20T12:57:23.099Z,16048.00
2023-04-20T12:58:23.118Z,7508.00
2023-04-20T12:59:23.056Z,5748.00
2023-04-20T13:00:23.044Z,5320.00
2023-04-20T13:01:23.246Z,5544.00
2023-04-20T13:02:23.377Z,5916.00
2023-04-20T13:03:23.334Z,5676.00
2023-04-20T13:04:23.764Z,6040.00
2023-04-20T13:05:23.069Z,6464.00
2023-04-20T13:06:23.038Z,6292.00
2023-04-20T13:07:23.008Z,6204.00
2023-04-20T13:09:23.167Z,7348.00
2023-04-20T13:10:23.046Z,7680.00
2023-04-20T13:11:23.619Z,6208.00
2023-04-20T13:12:23.093Z,4804.00
2023-04-20T13:13:23.108Z,4012.00
2023-04-20T13:14:23.027Z,3640.00
2023-04-20T13:15:35.556Z,3812.00
2023-04-20T13:16:23.112Z,4108.00
2023-04-20T13:17:23.227Z,4516.00
2023-04-20T13:19:55.761Z,21888.00
2023-04-20T13:20:55.729Z,8280.00
2023-04-20T13:21:55.724Z,23200.00
2023-04-20T13:22:58.302Z,10900.00
2023-04-20T13:23:56.965Z,23008.00
2023-04-20T13:24:55.762Z,7740.00
2023-04-20T13:25:55.728Z,16936.00
2023-04-20T13:26:55.706Z,7216.00
2023-04-20T13:27:55.764Z,22720.00
2023-04-20T13:28:55.716Z,23936.00
2023-04-20T13:29:55.839Z,23808.00
2023-04-20T13:30:55.722Z,12408.00
2023-04-20T13:31:55.787Z,9060.00
2023-04-20T13:32:55.854Z,8352.00
2023-04-20T13:33:55.749Z,17848.00
2023-04-20T13:34:55.759Z,24768.00
2023-04-20T13:35:55.744Z,8016.00
2023-04-20T13:36:55.742Z,23936.00
2023-04-20T13:37:55.752Z,7816.00
2023-04-20T13:38:55.761Z,7444.00
2023-04-20T13:39:55.772Z,5816.00
2023-04-20T13:40:55.804Z,5852.00
2023-04-20T13:41:55.892Z,4916.00
2023-04-20T13:42:55.914Z,6512.00
2023-04-20T13:43:55.944Z,8868.00
2023-04-20T13:44:55.841Z,6612.00
2023-04-20T13:45:56.782Z,5572.00
2023-04-20T13:46:55.767Z,4764.00
2023-04-20T13:47:55.846Z,4436.00
2023-04-20T13:48:55.759Z,16264.00
2023-04-20T13:49:55.825Z,24160.00
2023-04-20T13:50:55.826Z,8168.00
2023-04-20T13:51:55.781Z,5220.00
2023-04-20T13:52:55.824Z,5064.00
2023-04-20T13:53:55.775Z,6892.00
2023-04-20T13:54:55.784Z,24000.00
2023-04-20T13:55:55.814Z,22496.00
2023-04-20T13:56:55.790Z,23648.00
2023-04-20T13:57:55.810Z,28992.00
2023-04-20T13:58:55.760Z,40160.00
2023-04-20T13:59:55.825Z,7364.00
2023-04-20T14:00:55.813Z,64448.00
2023-04-20T14:01:55.774Z,5296.00
2023-04-20T14:02:55.810Z,4052.00
2023-04-20T14:03:55.961Z,3448.00
2023-04-20T14:04:55.880Z,3200.00
2023-04-20T14:05:55.774Z,3432.00
2023-04-20T14:06:55.772Z,4848.00
2023-04-20T14:07:55.771Z,4000.00
2023-04-20T14:08:55.823Z,5476.00
2023-04-20T14:09:55.821Z,6112.00
2023-04-20T14:10:55.792Z,4408.00
2023-04-20T14:11:57.145Z,8212.00
2023-04-20T14:12:55.802Z,18432.00
2023-04-20T14:13:55.842Z,20800.00
2023-04-20T14:14:55.792Z,21344.00
2023-04-20T14:15:55.811Z,20512.00
2023-04-20T14:16:55.815Z,20768.00
2023-04-20T14:17:55.909Z,9956.00
2023-04-20T14:18:55.830Z,35648.00
2023-04-20T14:19:55.858Z,61312.00
2023-04-20T14:20:55.817Z,61728.00
2023-04-20T14:21:55.864Z,56672.00
2023-04-20T14:22:55.808Z,59776.00
2023-04-20T14:23:55.822Z,62240.00
2023-04-20T14:24:55.803Z,62592.00
2023-04-20T14:25:55.816Z,61504.00
2023-04-20T14:26:55.867Z,57152.00
2023-04-20T14:27:55.819Z,56640.00
2023-04-20T14:28:55.877Z,56160.00
2023-04-20T14:29:55.823Z,59360.00
2023-04-20T14:30:55.876Z,48736.00
2023-04-20T14:31:55.884Z,27616.00
2023-04-20T14:32:55.856Z,54432.00
2023-04-20T14:33:55.852Z,56672.00
2023-04-20T14:34:55.865Z,22016.00
2023-04-20T14:35:55.867Z,5672.00
2023-04-20T14:36:55.855Z,4056.00
2023-04-20T14:37:55.872Z,3476.00
2023-04-20T14:38:55.877Z,3052.00
2023-04-20T14:39:55.897Z,2660.00
2023-04-20T14:40:55.900Z,2752.00
2023-04-20T14:41:55.973Z,3400.00
2023-04-20T14:42:55.871Z,4472.00
2023-04-20T14:43:55.902Z,3432.00
2023-04-20T14:44:55.934Z,3028.00
2023-04-20T14:45:55.912Z,2904.00
2023-04-20T14:46:55.963Z,2696.00
2023-04-20T14:47:55.899Z,3528.00
2023-04-20T14:48:55.907Z,4880.00
2023-04-20T14:49:55.927Z,10548.00
2023-04-20T14:50:55.958Z,8140.00
2023-04-20T14:51:55.889Z,8360.00
2023-04-20T14:52:55.898Z,9192.00
2023-04-20T14:53:55.923Z,5064.00
2023-04-20T14:54:55.908Z,5616.00
2023-04-20T14:55:55.920Z,4412.00
2023-04-20T14:56:55.909Z,4920.00
2023-04-20T14:57:55.922Z,3736.00
2023-04-20T14:58:55.917Z,3284.00
2023-04-20T14:59:55.923Z,3940.00
2023-04-20T15:00:55.934Z,5864.00
2023-04-20T15:02:03.129Z,7328.00
2023-04-20T15:02:56.154Z,8452.00
2023-04-20T15:03:56.193Z,35360.00
2023-04-20T15:04:56.074Z,36736.00
2023-04-20T15:05:56.195Z,40928.00
2023-04-20T15:06:55.919Z,35744.00
2023-04-20T15:07:55.911Z,34400.00
2023-04-20T15:08:55.897Z,36672.00
2023-04-20T15:09:55.962Z,29376.00
2023-04-20T15:10:55.927Z,26208.00
2023-04-20T15:11:55.950Z,19360.00
2023-04-20T15:12:55.924Z,17316.00
2023-04-20T15:13:55.934Z,13932.00
2023-04-20T15:14:55.952Z,9308.00
2023-04-20T15:15:55.967Z,4084.00
2023-04-20T15:16:56.049Z,3512.00
2023-04-20T15:17:56.017Z,3880.00
2023-04-20T15:18:55.974Z,4572.00
2023-04-20T15:19:55.937Z,5272.00
2023-04-20T15:20:55.987Z,6356.00
2023-04-20T15:21:55.944Z,4568.00
2023-04-20T15:22:55.952Z,5672.00
2023-04-20T15:23:55.937Z,2124.00
2023-04-20T15:24:55.936Z,1812.00
2023-04-20T15:25:55.966Z,1500.00
2023-04-20T15:26:55.936Z,1260.00
2023-04-20T15:27:56.019Z,1116.00
2023-04-20T15:28:55.935Z,1060.00
2023-04-20T15:29:55.936Z,988.00
2023-04-20T15:30:55.967Z,908.00
2023-04-20T15:31:55.993Z,816.00
2023-04-20T15:32:56.016Z,756.00
2023-04-20T15:33:55.936Z,720.00
2023-04-20T15:34:55.927Z,700.00
2023-04-20T15:35:55.954Z,704.00
2023-04-20T15:36:55.944Z,712.00
2023-04-20T15:37:55.948Z,780.00
2023-04-20T15:38:57.707Z,852.00
2023-04-20T15:39:55.994Z,888.00
2023-04-20T15:40:55.991Z,916.00
2023-04-20T15:41:55.941Z,900.00
2023-04-20T15:42:55.924Z,880.00
2023-04-20T15:43:55.966Z,888.00
2023-04-20T15:44:55.938Z,876.00
2023-04-20T15:45:56.004Z,856.00
2023-04-20T15:46:55.938Z,812.00
2023-04-20T15:47:56.011Z,800.00
2023-04-20T15:48:55.977Z,792.00
2023-04-20T15:49:55.927Z,752.00
2023-04-20T15:50:55.934Z,708.00
2023-04-20T15:51:55.944Z,656.00
2023-04-20T15:52:55.953Z,624.00
2023-04-20T15:53:55.951Z,616.00
2023-04-20T15:54:55.933Z,612.00
2023-04-20T15:55:55.935Z,628.00
2023-04-20T15:56:55.930Z,672.00
2023-04-20T15:57:55.974Z,720.00
2023-04-20T15:58:55.927Z,728.00
2023-04-20T15:59:55.924Z,708.00
2023-04-20T16:00:55.940Z,680.00
2023-04-20T16:12:30.457Z,360.00
2023-04-20T16:13:30.427Z,336.00
2023-04-20T16:14:30.426Z,308.00
2023-04-20T16:15:30.495Z,284.00
2023-04-20T16:16:30.534Z,264.00
2023-04-20T16:17:30.480Z,264.00
2023-04-20T16:18:30.373Z,260.00
2023-04-20T16:19:30.419Z,240.00
2023-04-20T16:20:30.380Z,216.00
2023-04-20T16:21:30.383Z,212.00
2023-04-20T16:22:30.379Z,208.00
2023-04-20T16:23:30.388Z,204.00
2023-04-20T16:24:30.389Z,216.00
2023-04-20T16:25:30.593Z,252.00
2023-04-20T16:26:30.356Z,280.00
2023-04-20T16:27:30.378Z,292.00
2023-04-20T16:28:30.380Z,304.00
2023-04-20T16:29:30.390Z,320.00
2023-04-20T16:30:30.368Z,304.00
2023-04-20T16:31:30.400Z,276.00
2023-04-20T16:32:30.448Z,260.00
2023-04-20T16:33:30.330Z,248.00
2023-04-20T16:34:30.338Z,228.00
2023-04-20T16:35:30.356Z,204.00
2023-04-20T16:36:30.337Z,188.00
2023-04-20T16:37:30.339Z,168.00
2023-04-20T16:38:30.342Z,160.00
2023-04-20T16:39:30.362Z,160.00
2023-04-20T16:40:30.308Z,168.00
2023-04-20T16:41:30.350Z,172.00
2023-04-20T16:42:30.368Z,172.00
2023-04-20T16:43:30.317Z,168.00